»·PEaware :: RNGR804 KNGP-KNGP

RNGR804 :: KNGP-KNGP

FLIGHT INFORMATION

Flight Status: Arrived
Operator: Unknown
More flights by this operator :: More flights under this callsign
Pilot: USN Avenger (31125)
Aircraft: BEECH AIRCRAFT T-6A TEXAN
(TEX2)
More flights by this aircraft type
Origin: KNGP Corpus Christi NAS/Truax
United States
Destination: KNGP Corpus Christi NAS/Truax
United States
More flights between these airports :: More routes between these airports
Route: KNGT KTFP
File this flight plan on PilotEdge
Remarks: Portland low departure
Altitude:
(Current/Filed)
4,500ft
Speed:
(Current/Filed)
240kts
Departed: 16-Nov-23 06:46 AM
Arrived: 16-Nov-23 07:46 AM
Distance/Time
Traveled:
0nm/1:00
Distance/Time
To Go:
Arrived

Flight Plot

Page will automatically refresh every two minutes.

Flight plan parsing failed; only flown route is shown


Map Options




Map Legend


Flown Route
Filed Route
Departure Airport
Arrival Airport
Navaid (VOR, NDB)
Fix

Horizontal Profiles

Position Reports

Time Latitude Longitude Heading Altitude Ground
Speed
16-Nov-23 06:29 27.701427 -97.300123 222 22ft 0kts
16-Nov-23 06:30 27.701426 -97.300124 222 22ft 0kts
16-Nov-23 06:31 27.701425 -97.300125 222 22ft 0kts
16-Nov-23 06:32 27.698553 -97.284289 158 22ft 0kts
16-Nov-23 06:33 27.698552 -97.284288 158 22ft 0kts
16-Nov-23 06:34 27.698550 -97.284288 158 22ft 0kts
16-Nov-23 06:35 27.698548 -97.284287 158 22ft 0kts
16-Nov-23 06:36 27.698547 -97.284286 158 22ft 0kts
16-Nov-23 06:37 27.698541 -97.284284 159 22ft 0kts
16-Nov-23 06:38 27.698539 -97.284283 159 22ft 0kts
16-Nov-23 06:39 27.698538 -97.284282 159 22ft 0kts
16-Nov-23 06:41 27.698536 -97.284282 159 22ft 0kts
16-Nov-23 06:42 27.698583 -97.285631 339 22ft 12kts
16-Nov-23 06:43 27.697627 -97.288564 225 22ft 16kts
16-Nov-23 06:44 27.695815 -97.290979 224 22ft 0kts
16-Nov-23 06:45 27.695012 -97.291504 141 22ft 7kts
16-Nov-23 06:46 27.688647 -97.284133 131 151ft 117kts
16-Nov-23 06:47 27.658074 -97.239173 123 547ft 218kts
16-Nov-23 06:48 27.692796 -97.215650 353 2922ft 191kts
16-Nov-23 06:49 27.745611 -97.223319 347 5330ft 189kts
16-Nov-23 06:50 27.803718 -97.236760 344 5441ft 236kts
16-Nov-23 06:51 27.869095 -97.253195 353 5568ft 244kts
16-Nov-23 06:52 27.937342 -97.239612 9 5566ft 249kts
16-Nov-23 06:53 28.005257 -97.221322 9 5459ft 256kts
16-Nov-23 06:54 28.074082 -97.206296 357 5571ft 248kts
16-Nov-23 06:55 28.133572 -97.239510 321 5475ft 243kts
16-Nov-23 06:56 28.186558 -97.286612 318 5508ft 238kts
16-Nov-23 06:57 28.235963 -97.336406 313 5589ft 236kts
16-Nov-23 06:58 28.284504 -97.388166 315 5571ft 238kts
16-Nov-23 06:59 28.336911 -97.434571 322 5529ft 242kts
16-Nov-23 07:00 28.388705 -97.480392 303 5879ft 218kts
16-Nov-23 07:01 28.368204 -97.540863 241 5461ft 228kts
16-Nov-23 07:02 28.369737 -97.600407 311 4814ft 223kts
16-Nov-23 07:03 28.411138 -97.655145 308 3236ft 229kts
16-Nov-23 07:04 28.433006 -97.716990 222 1405ft 236kts
16-Nov-23 07:05 28.384581 -97.686616 134 1132ft 208kts
16-Nov-23 07:06 28.352088 -97.639825 69 1168ft 152kts
16-Nov-23 07:07 28.377853 -97.654019 314 926ft 125kts
16-Nov-23 07:08 28.369266 -97.669505 137 236ft 106kts
16-Nov-23 07:09 28.349042 -97.643399 83 748ft 117kts
16-Nov-23 07:10 28.374133 -97.655200 312 910ft 118kts
16-Nov-23 07:11 28.371015 -97.671480 135 251ft 111kts
16-Nov-23 07:11 28.353256 -97.650656 123 683ft 122kts
16-Nov-23 07:12 28.373912 -97.656418 311 1035ft 120kts
16-Nov-23 07:13 28.369306 -97.669540 137 207ft 90kts
16-Nov-23 07:15 28.350644 -97.632024 84 1323ft 156kts
16-Nov-23 07:16 28.338298 -97.575137 116 2704ft 227kts
16-Nov-23 07:16 28.313746 -97.516399 113 2490ft 247kts
16-Nov-23 07:17 28.289970 -97.444165 103 2557ft 248kts
16-Nov-23 07:18 28.263803 -97.371651 119 2475ft 249kts
16-Nov-23 07:19 28.217139 -97.315516 144 2537ft 248kts
16-Nov-23 07:21 28.149067 -97.266346 147 2472ft 251kts
16-Nov-23 07:22 28.089937 -97.225701 158 2511ft 245kts
16-Nov-23 07:22 28.034605 -97.231661 192 2461ft 250kts
16-Nov-23 07:23 27.973076 -97.246880 192 1157ft 203kts
16-Nov-23 07:24 27.929176 -97.226994 136 1042ft 184kts
16-Nov-23 07:25 27.908036 -97.188619 333 956ft 123kts
16-Nov-23 07:26 27.927542 -97.219433 240 527ft 117kts
16-Nov-23 07:27 27.902560 -97.201577 143 358ft 129kts
16-Nov-23 07:28 27.907007 -97.189949 311 735ft 139kts
16-Nov-23 07:29 27.930617 -97.218428 279 627ft 118kts
16-Nov-23 07:30 27.904737 -97.203543 138 305ft 115kts
16-Nov-23 07:31 27.904994 -97.187969 317 849ft 132kts
16-Nov-23 07:32 27.930970 -97.215709 337 777ft 137kts
16-Nov-23 07:34 27.997890 -97.210207 4 988ft 241kts
16-Nov-23 07:34 28.043632 -97.182569 84 1031ft 239kts
16-Nov-23 07:35 27.990969 -97.146543 165 1005ft 243kts
16-Nov-23 07:36 27.924198 -97.133451 157 1091ft 247kts
16-Nov-23 07:37 27.860668 -97.138656 208 1058ft 247kts
16-Nov-23 07:38 27.796019 -97.163681 190 1036ft 242kts
16-Nov-23 07:39 27.746939 -97.194934 261 1308ft 200kts
16-Nov-23 07:40 27.731262 -97.256827 252 1054ft 202kts
16-Nov-23 07:41 27.703640 -97.305075 162 942ft 206kts
16-Nov-23 07:42 27.670568 -97.289815 313 885ft 134kts
16-Nov-23 07:43 27.696556 -97.315695 342 688ft 118kts
16-Nov-23 07:44 27.692482 -97.291873 133 23ft 68kts
16-Nov-23 07:45 27.689575 -97.287012 96 22ft 0kts

Navigation Log

Ident Type
Flight plan parsing failed, navigation log unavailable